createdAt,value
2017-12-02T01:19:37.804Z,29.83
2017-12-02T01:22:04.392Z,32.33
2017-12-02T01:24:30.986Z,31.53
2017-12-02T01:26:57.590Z,31.20
2017-12-02T01:29:24.177Z,28.13
2017-12-02T01:31:51.351Z,30.67
2017-12-02T01:34:17.963Z,33.60
2017-12-02T01:36:44.546Z,29.23
2017-12-02T01:39:11.141Z,27.07
2017-12-02T01:41:37.754Z,31.70
2017-12-02T01:44:04.356Z,27.13
2017-12-02T01:46:30.950Z,30.50
2017-12-02T01:48:57.585Z,30.90
2017-12-02T01:51:24.183Z,27.30
2017-12-02T01:53:50.780Z,28.43
2017-12-02T01:56:17.383Z,30.53
2017-12-02T01:58:43.975Z,28.23
2017-12-02T02:01:12.258Z,27.73
2017-12-02T02:03:38.858Z,26.57
2017-12-02T02:06:05.474Z,28.20
2017-12-02T02:08:32.158Z,30.97
2017-12-02T02:10:58.775Z,33.43
2017-12-02T02:13:25.367Z,30.90
2017-12-02T02:15:51.958Z,31.33
2017-12-02T02:18:18.591Z,30.20
2017-12-02T02:20:45.186Z,28.87
2017-12-02T02:23:11.777Z,28.73
2017-12-02T02:25:38.382Z,27.63
2017-12-02T02:28:04.978Z,30.17
2017-12-02T02:30:31.581Z,27.90
2017-12-02T02:32:58.191Z,26.23
2017-12-02T02:35:25.511Z,28.63
2017-12-02T02:37:52.102Z,24.90
2017-12-02T02:40:18.710Z,26.30
2017-12-02T02:42:45.302Z,24.43
2017-12-02T02:45:11.890Z,24.90
2017-12-02T02:47:38.507Z,26.60
2017-12-02T02:50:05.098Z,25.57
2017-12-02T02:52:31.699Z,30.27
2017-12-02T02:54:58.328Z,25.37
2017-12-02T02:57:24.901Z,26.07
2017-12-02T02:59:51.494Z,28.10
2017-12-02T03:02:18.102Z,28.73
2017-12-02T03:04:45.258Z,27.70
2017-12-02T03:07:11.923Z,25.33
2017-12-02T03:09:38.561Z,26.77
2017-12-02T03:12:05.174Z,28.23
2017-12-02T03:14:31.766Z,28.07
2017-12-02T03:16:58.371Z,26.70
2017-12-02T03:19:24.971Z,25.57
2017-12-02T03:21:51.566Z,25.70
2017-12-02T03:24:18.169Z,31.93
2017-12-02T03:26:44.762Z,26.97
2017-12-02T03:29:12.070Z,23.63
2017-12-02T03:31:38.723Z,29.47
2017-12-02T03:34:05.313Z,28.50
2017-12-02T03:36:31.898Z,26.87
2017-12-02T03:38:58.618Z,29.33
2017-12-02T03:41:26.070Z,33.13
2017-12-02T03:43:52.664Z,30.87
2017-12-02T03:46:19.275Z,31.70
2017-12-02T03:48:45.854Z,29.67
2017-12-02T03:51:12.446Z,30.47
2017-12-02T03:53:39.061Z,29.00
2017-12-02T03:56:05.674Z,28.30
2017-12-02T03:58:32.254Z,30.57
2017-12-02T04:00:58.849Z,31.27
2017-12-02T04:03:25.442Z,36.13
2017-12-02T04:05:52.030Z,33.70
2017-12-02T04:08:18.640Z,32.17
2017-12-02T04:10:45.236Z,35.70
2017-12-02T04:13:11.834Z,33.47
2017-12-02T04:15:38.503Z,29.20
2017-12-02T04:18:05.358Z,28.57
2017-12-02T04:20:31.963Z,30.33
2017-12-02T04:22:58.563Z,29.70
2017-12-02T04:25:25.154Z,31.70
2017-12-02T04:27:53.118Z,34.90
2017-12-02T04:30:19.730Z,29.43
2017-12-02T04:32:46.927Z,29.53
2017-12-02T04:35:13.582Z,28.80
2017-12-02T04:37:40.738Z,31.60
2017-12-02T04:40:07.706Z,29.40
2017-12-02T04:42:34.322Z,35.43
2017-12-02T04:45:00.953Z,31.00
2017-12-02T04:47:27.523Z,30.30
2017-12-02T04:49:54.114Z,32.60
2017-12-02T04:52:20.727Z,31.80
2017-12-02T04:54:47.314Z,31.13
2017-12-02T04:57:13.946Z,33.10
2017-12-02T04:59:40.558Z,33.47
2017-12-02T05:02:07.150Z,30.17
2017-12-02T05:04:33.741Z,30.37
2017-12-02T05:07:00.353Z,29.80
2017-12-02T05:09:27.007Z,29.43
2017-12-02T05:11:53.593Z,33.70
2017-12-02T05:14:20.202Z,32.83
2017-12-02T05:16:46.798Z,30.50
2017-12-02T05:19:13.393Z,31.90
2017-12-02T05:21:40.010Z,30.93
2017-12-02T05:24:06.601Z,32.57
2017-12-02T05:26:33.200Z,31.07
2017-12-02T05:28:59.798Z,29.70
2017-12-02T05:31:26.406Z,30.50
2017-12-02T05:33:52.997Z,31.23
2017-12-02T05:36:19.621Z,31.90
2017-12-02T05:38:46.221Z,30.40
2017-12-02T05:41:12.810Z,32.63
2017-12-02T05:43:39.419Z,32.93
2017-12-02T05:46:06.018Z,31.40
2017-12-02T05:48:32.616Z,30.03
2017-12-02T05:50:59.225Z,30.73
2017-12-02T05:53:25.814Z,31.33
2017-12-02T05:55:52.408Z,35.13
2017-12-02T05:58:19.006Z,29.03
2017-12-02T06:00:45.594Z,33.17
2017-12-02T06:03:12.210Z,27.70
2017-12-02T06:05:38.822Z,33.43
2017-12-02T06:08:05.414Z,29.70
2017-12-02T06:10:32.017Z,31.47
2017-12-02T06:12:58.633Z,35.80
2017-12-02T06:15:25.235Z,33.67
2017-12-02T06:17:51.834Z,31.80
2017-12-02T06:20:18.450Z,32.80
2017-12-02T06:22:45.046Z,30.53
2017-12-02T06:25:11.637Z,32.13
2017-12-02T06:27:38.250Z,31.53
2017-12-02T06:30:04.867Z,28.33
2017-12-02T06:32:31.454Z,33.07
2017-12-02T06:34:58.054Z,38.03
2017-12-02T06:37:24.646Z,33.07
2017-12-02T06:39:51.238Z,31.90
2017-12-02T06:42:17.847Z,30.00
2017-12-02T06:44:44.461Z,31.00
2017-12-02T06:47:11.054Z,30.87
2017-12-02T06:49:37.675Z,31.97
2017-12-02T06:52:04.271Z,26.40
2017-12-02T06:54:30.866Z,29.57
2017-12-02T06:56:57.479Z,30.63
2017-12-02T06:59:24.072Z,30.20
2017-12-02T07:01:50.683Z,35.20
2017-12-02T07:04:17.286Z,29.27
2017-12-02T07:06:43.886Z,32.60
2017-12-02T07:09:10.479Z,29.87
2017-12-02T07:11:37.093Z,27.13
2017-12-02T07:14:03.699Z,30.60
2017-12-02T07:16:30.288Z,29.60
2017-12-02T07:18:56.908Z,32.50
2017-12-02T07:21:23.498Z,28.00
2017-12-02T07:23:50.094Z,28.27
2017-12-02T07:26:16.700Z,29.70
2017-12-02T07:28:43.289Z,28.40
2017-12-02T07:31:09.890Z,30.80
2017-12-02T07:33:36.505Z,27.53
2017-12-02T07:36:03.098Z,27.47
2017-12-02T07:38:29.694Z,29.43
2017-12-02T07:40:56.298Z,28.93
2017-12-02T07:43:22.886Z,28.47
2017-12-02T07:45:49.479Z,27.77
2017-12-02T07:48:16.082Z,30.30
2017-12-02T07:50:42.681Z,28.77
2017-12-02T07:53:09.269Z,30.30
2017-12-02T07:55:35.878Z,32.33
2017-12-02T07:58:02.475Z,30.97
2017-12-02T08:00:29.057Z,30.07
2017-12-02T08:02:55.658Z,27.00
2017-12-02T08:05:22.250Z,31.07
2017-12-02T08:07:48.838Z,36.33
2017-12-02T08:10:15.443Z,42.57
2017-12-02T08:12:42.054Z,38.60
2017-12-02T08:15:08.650Z,41.60
2017-12-02T08:17:35.254Z,35.13
2017-12-02T08:20:01.842Z,32.97
2017-12-02T08:22:28.434Z,38.23
2017-12-02T08:24:55.054Z,40.23
2017-12-02T08:27:21.671Z,45.03
2017-12-02T08:29:48.254Z,45.90
2017-12-02T08:32:15.006Z,48.43
2017-12-02T08:34:41.581Z,49.87
2017-12-02T08:37:08.177Z,51.30
2017-12-02T08:39:34.782Z,46.47
2017-12-02T08:42:01.382Z,49.67
2017-12-02T08:44:27.966Z,55.20
2017-12-02T08:46:54.570Z,56.60
2017-12-02T08:49:21.166Z,56.70
2017-12-02T08:51:47.762Z,53.30
2017-12-02T08:54:14.358Z,53.20
2017-12-02T08:56:40.950Z,55.83
2017-12-02T08:59:07.598Z,57.63
2017-12-02T09:01:34.198Z,55.40
2017-12-02T09:04:00.800Z,63.53
2017-12-02T09:06:27.386Z,61.33
2017-12-02T09:08:54.566Z,69.87
2017-12-02T09:11:21.210Z,77.37
2017-12-02T09:13:47.804Z,62.80
2017-12-02T09:16:14.406Z,62.63
2017-12-02T09:18:40.994Z,68.87
2017-12-02T09:21:07.585Z,64.00
2017-12-02T09:23:34.254Z,69.53
2017-12-02T09:26:00.846Z,68.80
2017-12-02T09:28:27.437Z,63.63
2017-12-02T09:30:54.042Z,63.87
2017-12-02T09:33:20.629Z,59.90
2017-12-02T09:35:47.218Z,69.83
2017-12-02T09:38:13.826Z,83.90
2017-12-02T09:40:40.418Z,72.32
2017-12-02T09:43:07.018Z,85.50
2017-12-02T09:45:33.623Z,68.53
2017-12-02T09:48:00.213Z,62.50
2017-12-02T09:50:26.802Z,73.10
2017-12-02T09:52:53.405Z,62.90
2017-12-02T09:55:19.994Z,73.90
2017-12-02T09:57:46.586Z,77.60
2017-12-02T10:00:13.261Z,79.07
2017-12-02T10:02:39.842Z,73.13
2017-12-02T10:05:06.426Z,78.37
2017-12-02T10:07:33.037Z,86.97
2017-12-02T10:09:59.626Z,67.53
2017-12-02T10:12:26.214Z,66.47
2017-12-02T10:14:52.817Z,73.50
2017-12-02T10:17:19.410Z,62.37
2017-12-02T10:19:46.002Z,67.67
2017-12-02T10:22:12.605Z,68.90
2017-12-02T10:24:39.201Z,68.67
2017-12-02T10:27:05.787Z,70.57
2017-12-02T10:29:32.401Z,71.63
2017-12-02T10:31:58.982Z,81.23
2017-12-02T10:34:25.582Z,80.40
2017-12-02T10:36:52.182Z,72.30
2017-12-02T10:39:18.771Z,70.97
2017-12-02T10:41:45.361Z,65.20
2017-12-02T10:44:11.966Z,58.93
2017-12-02T10:46:38.555Z,63.67
2017-12-02T10:49:05.146Z,61.60
2017-12-02T10:51:31.753Z,62.37
2017-12-02T10:53:58.341Z,63.97
2017-12-02T10:56:24.994Z,67.73
2017-12-02T10:58:51.579Z,74.33
2017-12-02T11:01:18.162Z,61.40
2017-12-02T11:03:44.753Z,60.17
2017-12-02T11:06:11.368Z,63.67
2017-12-02T11:08:37.962Z,64.33
2017-12-02T11:11:04.545Z,60.63
2017-12-02T11:13:31.170Z,68.20
2017-12-02T11:15:57.826Z,60.30
2017-12-02T11:18:24.363Z,65.03
2017-12-02T11:20:50.966Z,63.37
2017-12-02T11:23:17.554Z,76.40
2017-12-02T11:25:44.146Z,67.40
2017-12-02T11:28:10.746Z,71.53
2017-12-02T11:30:37.342Z,60.77
2017-12-02T11:33:03.944Z,66.80
2017-12-02T11:35:30.545Z,66.13
2017-12-02T11:37:57.142Z,80.17
2017-12-02T11:40:23.730Z,73.23
2017-12-02T11:42:50.342Z,63.40
2017-12-02T11:45:16.942Z,71.97
2017-12-02T11:47:43.530Z,63.73
2017-12-02T11:50:10.146Z,64.50
2017-12-02T11:52:36.769Z,65.80
2017-12-02T11:55:03.362Z,67.32
2017-12-02T11:57:29.969Z,62.80
2017-12-02T11:59:56.566Z,66.70
2017-12-02T12:02:23.154Z,65.33
2017-12-02T12:04:49.754Z,66.33
2017-12-02T12:07:16.341Z,65.77
2017-12-02T12:09:42.951Z,65.43
2017-12-02T12:12:09.550Z,66.85
2017-12-02T12:14:36.137Z,66.07
2017-12-02T12:17:02.747Z,63.73
2017-12-02T12:19:29.355Z,75.03
2017-12-02T12:21:55.946Z,62.50
2017-12-02T12:24:22.538Z,68.10
2017-12-02T12:26:49.152Z,62.07
2017-12-02T12:29:15.736Z,65.93
2017-12-02T12:31:42.327Z,64.30
2017-12-02T12:34:08.934Z,67.65
2017-12-02T12:36:35.526Z,66.00
2017-12-02T12:39:02.123Z,63.50
2017-12-02T12:41:28.741Z,63.47
2017-12-02T12:43:55.360Z,62.17
2017-12-02T12:46:21.952Z,67.23
2017-12-02T12:48:48.562Z,66.67
2017-12-02T12:51:15.154Z,63.97
2017-12-02T12:53:41.763Z,59.07
2017-12-02T12:56:08.402Z,58.10
2017-12-02T12:58:35.010Z,57.03
2017-12-02T13:01:01.601Z,58.73
2017-12-02T13:03:28.210Z,56.00
2017-12-02T13:05:54.801Z,63.73
2017-12-02T13:08:21.390Z,54.90
2017-12-02T13:10:48.001Z,60.70
2017-12-02T13:13:14.582Z,62.97
2017-12-02T13:15:41.170Z,61.07
2017-12-02T13:18:07.784Z,65.23
2017-12-02T13:20:34.369Z,63.93
2017-12-02T13:23:00.962Z,61.23
2017-12-02T13:25:27.579Z,66.77
2017-12-02T13:27:54.166Z,56.73
2017-12-02T13:30:20.758Z,58.97
2017-12-02T13:32:47.358Z,53.30
2017-12-02T13:35:13.947Z,53.10
2017-12-02T13:37:40.534Z,55.70
2017-12-02T13:40:07.152Z,57.37
2017-12-02T13:42:33.744Z,58.00
2017-12-02T13:45:00.338Z,52.80
2017-12-02T13:47:26.950Z,55.40
2017-12-02T13:49:53.538Z,56.07
2017-12-02T13:52:20.130Z,60.93
2017-12-02T13:54:46.730Z,54.40
2017-12-02T13:57:13.321Z,55.60
2017-12-02T13:59:39.910Z,60.47
2017-12-02T14:02:06.520Z,61.40
2017-12-02T14:04:33.116Z,54.50
2017-12-02T14:06:59.699Z,57.13
2017-12-02T14:09:26.323Z,55.20
2017-12-02T14:11:52.909Z,60.73
2017-12-02T14:14:19.517Z,54.80
2017-12-02T14:16:46.118Z,60.67
2017-12-02T14:19:12.706Z,51.87
2017-12-02T14:21:39.299Z,52.80
2017-12-02T14:24:05.904Z,52.90
2017-12-02T14:26:32.490Z,55.17
2017-12-02T14:28:59.082Z,62.40
2017-12-02T14:31:25.681Z,58.53
2017-12-02T14:33:52.287Z,55.17
2017-12-02T14:36:18.874Z,53.10
2017-12-02T14:38:45.486Z,50.57
2017-12-02T14:41:12.089Z,53.90
2017-12-02T14:43:38.686Z,54.50
2017-12-02T14:46:05.286Z,54.83
2017-12-02T14:48:31.878Z,51.00
2017-12-02T14:50:58.467Z,52.03
2017-12-02T14:53:25.091Z,55.43
2017-12-02T14:55:51.674Z,52.47
2017-12-02T14:58:18.270Z,58.33
2017-12-02T15:00:44.870Z,50.00
2017-12-02T15:03:11.463Z,61.47
2017-12-02T15:05:38.054Z,49.70
2017-12-02T15:08:04.657Z,53.33
2017-12-02T15:10:31.255Z,54.40
2017-12-02T15:12:57.843Z,51.50
2017-12-02T15:15:24.450Z,54.80
2017-12-02T15:17:51.042Z,55.17
2017-12-02T15:20:17.649Z,53.00
2017-12-02T15:22:44.264Z,57.37
2017-12-02T15:25:10.858Z,58.80
2017-12-02T15:27:37.455Z,53.00
2017-12-02T15:30:04.100Z,52.73
2017-12-02T15:32:30.691Z,46.77
2017-12-02T15:34:57.274Z,51.70
2017-12-02T15:37:23.918Z,48.83
2017-12-02T15:39:50.506Z,48.27
2017-12-02T15:42:17.102Z,48.77
2017-12-02T15:44:43.718Z,51.90
2017-12-02T15:47:10.313Z,46.23
2017-12-02T15:49:36.902Z,46.80
2017-12-02T15:52:03.523Z,52.63
2017-12-02T15:54:30.113Z,44.07
2017-12-02T15:56:56.716Z,50.87
2017-12-02T15:59:23.319Z,46.30
2017-12-02T16:01:49.911Z,52.13
2017-12-02T16:04:16.501Z,50.50
2017-12-02T16:06:43.108Z,50.53
2017-12-02T16:09:09.697Z,48.87
2017-12-02T16:11:36.290Z,47.27
2017-12-02T16:14:02.898Z,49.97
2017-12-02T16:16:29.486Z,53.73
2017-12-02T16:18:56.080Z,49.80
2017-12-02T16:21:22.693Z,52.13
2017-12-02T16:23:49.282Z,54.27
2017-12-02T16:26:15.874Z,59.83
2017-12-02T16:28:42.491Z,64.57
2017-12-02T16:31:09.087Z,60.07
2017-12-02T16:33:35.673Z,69.13
2017-12-02T16:36:02.278Z,75.50
2017-12-02T16:38:28.871Z,73.03
2017-12-02T16:40:55.461Z,63.23
2017-12-02T16:43:22.069Z,55.70
2017-12-02T16:45:48.662Z,60.20
2017-12-02T16:48:15.250Z,66.70
2017-12-02T16:50:41.854Z,67.80
2017-12-02T16:53:08.507Z,59.77
2017-12-02T16:55:35.078Z,58.47
2017-12-02T16:58:01.681Z,56.17
2017-12-02T17:00:28.270Z,58.77
2017-12-02T17:02:54.862Z,58.63
2017-12-02T17:05:21.478Z,59.17
2017-12-02T17:07:48.078Z,55.87
2017-12-02T17:10:14.665Z,52.97
2017-12-02T17:12:41.279Z,55.57
2017-12-02T17:15:07.869Z,55.93
2017-12-02T17:17:34.454Z,51.80
2017-12-02T17:20:01.054Z,51.90
2017-12-02T17:22:27.650Z,49.00
2017-12-02T17:24:54.239Z,49.57
2017-12-02T17:27:20.846Z,52.13
2017-12-02T17:29:47.438Z,45.53
2017-12-02T17:32:14.027Z,52.93
2017-12-02T17:34:40.863Z,53.90
2017-12-02T17:37:07.446Z,50.70
2017-12-02T17:39:34.059Z,54.00
2017-12-02T17:42:00.662Z,49.20
2017-12-02T17:44:27.254Z,56.30
2017-12-02T17:46:53.838Z,53.57
2017-12-02T17:49:20.450Z,50.43
2017-12-02T17:51:47.046Z,50.17
2017-12-02T17:54:13.637Z,57.10
2017-12-02T17:56:40.258Z,53.13
2017-12-02T17:59:06.841Z,51.77
2017-12-02T18:01:33.439Z,52.77
2017-12-02T18:04:00.042Z,54.50
2017-12-02T18:06:26.638Z,49.30
2017-12-02T18:08:53.222Z,50.50
2017-12-02T18:11:19.838Z,52.80
2017-12-02T18:13:46.495Z,50.00
2017-12-02T18:16:13.086Z,46.93
2017-12-02T18:18:39.693Z,51.27
2017-12-02T18:21:06.279Z,50.03
2017-12-02T18:23:32.870Z,48.73
2017-12-02T18:25:59.481Z,47.37
2017-12-02T18:28:26.078Z,49.97
2017-12-02T18:30:52.671Z,52.00
2017-12-02T18:33:19.285Z,54.20
2017-12-02T18:35:45.865Z,49.30
2017-12-02T18:38:12.462Z,46.27
2017-12-02T18:40:39.078Z,48.33
2017-12-02T18:43:05.674Z,47.83
2017-12-02T18:45:32.271Z,46.90
2017-12-02T18:47:58.882Z,44.33
2017-12-02T18:50:25.471Z,47.77
2017-12-02T18:52:52.069Z,47.83
2017-12-02T18:55:18.682Z,47.10
2017-12-02T18:57:45.283Z,49.23
2017-12-02T19:00:11.865Z,47.30
2017-12-02T19:02:38.469Z,39.63
2017-12-02T19:05:05.062Z,40.60
2017-12-02T19:07:31.662Z,43.27
2017-12-02T19:09:58.284Z,46.60
2017-12-02T19:12:24.870Z,41.50
2017-12-02T19:14:51.524Z,44.70
2017-12-02T19:17:18.126Z,52.20
2017-12-02T19:19:45.746Z,51.73
2017-12-02T19:22:12.330Z,49.87
2017-12-02T19:24:38.987Z,48.97
2017-12-02T19:27:05.570Z,49.17
2017-12-02T19:29:32.166Z,48.63
2017-12-02T19:31:58.774Z,45.27
2017-12-02T19:34:25.370Z,47.17
2017-12-02T19:36:51.986Z,46.20
2017-12-02T19:39:18.621Z,45.77
2017-12-02T19:41:45.216Z,41.13
2017-12-02T19:44:11.865Z,49.33
2017-12-02T19:46:38.459Z,53.00
2017-12-02T19:49:05.045Z,50.73
2017-12-02T19:51:31.643Z,48.20
2017-12-02T19:53:58.250Z,49.27
2017-12-02T19:56:24.866Z,50.30
2017-12-02T19:58:51.458Z,50.10
2017-12-02T20:01:18.107Z,54.20
2017-12-02T20:03:44.718Z,47.40
2017-12-02T20:06:11.312Z,47.87
2017-12-02T20:08:37.921Z,47.50
2017-12-02T20:11:04.518Z,50.07
2017-12-02T20:13:31.105Z,50.60
2017-12-02T20:15:57.714Z,60.37
2017-12-02T20:18:24.302Z,47.67
2017-12-02T20:20:50.923Z,48.37
2017-12-02T20:23:17.554Z,49.27
2017-12-02T20:25:44.143Z,50.20
2017-12-02T20:28:10.740Z,50.20
2017-12-02T20:30:37.341Z,63.50
2017-12-02T20:33:03.930Z,57.60
2017-12-02T20:35:30.529Z,53.37
2017-12-02T20:37:57.142Z,61.67
2017-12-02T20:40:23.730Z,60.07
2017-12-02T20:42:50.328Z,57.80
2017-12-02T20:45:16.934Z,50.80
2017-12-02T20:47:43.523Z,52.37
2017-12-02T20:50:10.109Z,49.47
2017-12-02T20:52:36.714Z,51.00
2017-12-02T20:55:03.335Z,47.87
2017-12-02T20:57:29.946Z,47.67
2017-12-02T20:59:56.546Z,49.80
2017-12-02T21:02:23.150Z,42.97
2017-12-02T21:04:49.737Z,45.43
2017-12-02T21:07:16.350Z,46.20
2017-12-02T21:09:42.947Z,46.27
2017-12-02T21:12:09.546Z,45.40
2017-12-02T21:14:36.175Z,42.20
2017-12-02T21:17:02.778Z,49.00
2017-12-02T21:19:29.361Z,48.27
2017-12-02T21:21:55.977Z,48.13
2017-12-02T21:24:22.561Z,43.60
2017-12-02T21:26:49.146Z,45.87
2017-12-02T21:29:15.776Z,41.80
2017-12-02T21:31:42.378Z,48.27
2017-12-02T21:34:08.963Z,43.90
2017-12-02T21:36:35.574Z,48.87
2017-12-02T21:39:02.162Z,46.63
2017-12-02T21:41:28.754Z,41.13
2017-12-02T21:43:55.355Z,49.50
2017-12-02T21:46:21.946Z,42.03
2017-12-02T21:48:48.530Z,43.13
2017-12-02T21:51:15.146Z,43.17
2017-12-02T21:53:41.739Z,41.20
2017-12-02T21:56:08.334Z,37.63
2017-12-02T21:58:34.934Z,39.03
2017-12-02T22:01:01.531Z,42.77
2017-12-02T22:03:28.118Z,40.93
2017-12-02T22:05:54.750Z,43.40
2017-12-02T22:08:22.042Z,48.30
2017-12-02T22:10:48.662Z,46.80
2017-12-02T22:13:15.396Z,43.40
2017-12-02T22:15:41.988Z,45.77
2017-12-02T22:18:08.595Z,52.13
2017-12-02T22:20:35.358Z,47.67
2017-12-02T22:23:01.942Z,43.63
2017-12-02T22:25:28.529Z,47.37
2017-12-02T22:27:55.159Z,47.40
2017-12-02T22:30:21.754Z,42.33
2017-12-02T22:32:48.342Z,46.20
2017-12-02T22:35:14.970Z,44.60
2017-12-02T22:37:41.559Z,47.43
2017-12-02T22:40:08.150Z,44.77
2017-12-02T22:42:34.769Z,45.13
2017-12-02T22:45:01.357Z,46.93
2017-12-02T22:47:28.014Z,43.47
2017-12-02T22:49:54.623Z,48.03
2017-12-02T22:52:21.215Z,45.57
2017-12-02T22:54:47.808Z,44.90
2017-12-02T22:57:14.410Z,44.10
2017-12-02T22:59:41.003Z,47.20
2017-12-02T23:02:07.591Z,42.00
2017-12-02T23:04:34.226Z,42.83
2017-12-02T23:07:01.657Z,45.07
2017-12-02T23:09:28.258Z,39.40
2017-12-02T23:11:54.861Z,44.40
2017-12-02T23:14:21.446Z,45.13
2017-12-02T23:16:48.039Z,45.63
2017-12-02T23:19:14.643Z,43.50
2017-12-02T23:21:41.235Z,43.63
2017-12-02T23:24:07.836Z,42.13
2017-12-02T23:26:34.429Z,43.10
2017-12-02T23:29:01.021Z,42.70
2017-12-02T23:31:27.614Z,42.13
2017-12-02T23:33:54.222Z,41.10
2017-12-02T23:36:20.817Z,38.60
2017-12-02T23:38:47.406Z,40.93
2017-12-02T23:41:14.039Z,44.23
2017-12-02T23:43:40.610Z,41.80
2017-12-02T23:46:07.201Z,41.30
2017-12-02T23:48:33.822Z,46.40
2017-12-02T23:51:00.390Z,43.77
2017-12-02T23:53:26.978Z,38.70
2017-12-02T23:55:53.596Z,40.43
2017-12-02T23:58:20.182Z,41.73
